createdAt,value
2018-12-06T00:00:43.149Z,0.33
2018-12-06T00:03:09.339Z,0.50
2018-12-06T00:05:35.474Z,0.50
2018-12-06T00:08:16.437Z,1.33
2018-12-06T00:10:43.223Z,0.40
2018-12-06T00:13:09.561Z,0.90
2018-12-06T00:15:35.832Z,0.53
2018-12-06T00:18:01.979Z,0.67
2018-12-06T00:20:28.141Z,1.20
2018-12-06T00:22:54.290Z,0.77
2018-12-06T00:25:20.404Z,0.80
2018-12-06T00:27:46.551Z,0.40
2018-12-06T00:30:24.835Z,0.70
2018-12-06T00:32:50.963Z,0.60
2018-12-06T00:35:17.071Z,0.80
2018-12-06T00:37:43.206Z,0.50
2018-12-06T00:40:10.252Z,0.43
2018-12-06T00:42:36.399Z,0.40
2018-12-06T00:45:02.687Z,0.60
2018-12-06T00:47:28.814Z,0.40
2018-12-06T00:49:54.935Z,0.60
2018-12-06T00:52:21.061Z,0.63
2018-12-06T00:54:47.204Z,0.50
2018-12-06T00:57:13.335Z,0.53
2018-12-06T00:59:39.471Z,0.57
2018-12-06T01:02:07.675Z,0.47
2018-12-06T01:04:33.807Z,0.47
2018-12-06T01:06:59.944Z,0.67
2018-12-06T01:09:26.077Z,0.57
2018-12-06T01:11:52.211Z,0.53
2018-12-06T01:14:20.404Z,0.63
2018-12-06T01:16:46.543Z,0.83
2018-12-06T01:19:12.659Z,0.47
2018-12-06T01:21:38.783Z,0.57
2018-12-06T01:24:04.899Z,0.53
2018-12-06T01:26:31.011Z,0.50
2018-12-06T01:28:57.143Z,1.03
2018-12-06T01:31:23.251Z,0.50
2018-12-06T01:33:49.398Z,0.60
2018-12-06T01:36:15.581Z,0.60
2018-12-06T01:38:41.763Z,1.00
2018-12-06T01:41:07.871Z,0.40
2018-12-06T01:43:34.001Z,0.70
2018-12-06T01:46:00.115Z,0.60
2018-12-06T01:48:26.468Z,0.70
2018-12-06T01:50:52.603Z,0.80
2018-12-06T01:53:18.740Z,0.67
2018-12-06T01:55:44.851Z,0.60
2018-12-06T01:58:11.020Z,0.60
2018-12-06T02:00:37.155Z,0.53
2018-12-06T02:03:03.355Z,0.60
2018-12-06T02:05:29.470Z,0.60
2018-12-06T02:07:55.584Z,0.50
2018-12-06T02:10:21.722Z,1.07
2018-12-06T02:12:47.850Z,0.50
2018-12-06T02:15:14.135Z,0.70
2018-12-06T02:17:40.244Z,0.80
2018-12-06T02:20:06.536Z,0.70
2018-12-06T02:22:32.662Z,0.90
2018-12-06T02:24:58.795Z,0.63
2018-12-06T02:27:24.963Z,0.70
2018-12-06T02:29:53.230Z,0.77
2018-12-06T02:32:19.349Z,0.50
2018-12-06T02:34:45.467Z,0.57
2018-12-06T02:37:11.608Z,0.80
2018-12-06T02:39:37.748Z,0.60
2018-12-06T02:42:03.931Z,0.57
2018-12-06T02:44:30.352Z,0.60
2018-12-06T02:46:56.459Z,0.57
2018-12-06T02:49:22.592Z,0.50
2018-12-06T02:51:48.707Z,0.60
2018-12-06T02:54:14.839Z,0.63
2018-12-06T02:56:40.962Z,1.27
2018-12-06T02:59:07.128Z,0.87
2018-12-06T03:01:33.263Z,1.17
2018-12-06T03:03:59.412Z,0.67
2018-12-06T03:06:25.516Z,0.73
2018-12-06T03:08:51.648Z,0.80
2018-12-06T03:11:17.773Z,0.80
2018-12-06T03:13:44.016Z,0.70
2018-12-06T03:16:10.143Z,0.70
2018-12-06T03:18:36.267Z,0.60
2018-12-06T03:21:02.448Z,0.50
2018-12-06T03:23:28.595Z,0.50
2018-12-06T03:25:54.732Z,0.70
2018-12-06T03:28:20.864Z,0.60
2018-12-06T03:30:46.994Z,0.77
2018-12-06T03:33:13.111Z,0.70
2018-12-06T03:35:39.228Z,0.60
2018-12-06T03:38:05.487Z,0.50
2018-12-06T03:40:31.631Z,1.00
2018-12-06T03:42:57.751Z,0.37
2018-12-06T03:45:23.888Z,0.87
2018-12-06T03:47:50.005Z,0.60
2018-12-06T03:50:16.123Z,0.70
2018-12-06T03:52:42.235Z,0.60
2018-12-06T03:55:08.401Z,0.60
2018-12-06T03:57:34.511Z,0.60
2018-12-06T04:00:00.619Z,0.60
2018-12-06T04:02:26.734Z,1.40
2018-12-06T04:04:52.851Z,0.77
2018-12-06T04:07:18.979Z,0.63
2018-12-06T04:09:45.114Z,0.50
2018-12-06T04:12:11.257Z,0.50
2018-12-06T04:14:38.278Z,0.80
2018-12-06T04:17:04.407Z,0.60
2018-12-06T04:19:30.519Z,0.70
2018-12-06T04:21:56.641Z,0.60
2018-12-06T04:24:22.756Z,0.67
2018-12-06T04:26:48.875Z,0.70
2018-12-06T04:29:14.990Z,0.80
2018-12-06T04:31:41.158Z,1.20
2018-12-06T04:34:07.265Z,0.30
2018-12-06T04:36:33.380Z,0.80
2018-12-06T04:38:59.624Z,0.67
2018-12-06T04:41:25.743Z,0.43
2018-12-06T04:43:51.859Z,0.70
2018-12-06T04:46:18.009Z,0.50
2018-12-06T04:48:44.145Z,0.57
2018-12-06T04:51:10.285Z,0.50
2018-12-06T04:53:36.399Z,0.40
2018-12-06T04:56:02.527Z,0.50
2018-12-06T04:58:28.651Z,0.60
2018-12-06T05:00:54.782Z,0.73
2018-12-06T05:03:20.940Z,0.60
2018-12-06T05:05:47.051Z,0.60
2018-12-06T05:08:13.311Z,0.80
2018-12-06T05:10:39.444Z,0.70
2018-12-06T05:13:05.640Z,0.50
2018-12-06T05:15:31.753Z,0.57
2018-12-06T05:17:57.886Z,0.50
2018-12-06T05:20:24.023Z,0.70
2018-12-06T05:22:50.162Z,0.70
2018-12-06T05:25:16.275Z,0.40
2018-12-06T05:27:42.411Z,0.50
2018-12-06T05:30:08.675Z,0.50
2018-12-06T05:32:34.795Z,0.50
2018-12-06T05:35:00.906Z,0.40
2018-12-06T05:37:27.094Z,0.40
2018-12-06T05:39:53.254Z,0.70
2018-12-06T05:42:19.401Z,0.50
2018-12-06T05:44:45.521Z,0.50
2018-12-06T05:47:11.661Z,0.60
2018-12-06T05:49:37.780Z,0.30
2018-12-06T05:52:03.899Z,0.40
2018-12-06T05:54:30.031Z,0.53
2018-12-06T05:56:56.170Z,0.50
2018-12-06T05:59:22.344Z,0.50
2018-12-06T06:01:48.490Z,0.70
2018-12-06T06:04:14.630Z,0.40
2018-12-06T06:06:40.775Z,0.57
2018-12-06T06:09:06.943Z,0.37
2018-12-06T06:11:33.069Z,0.40
2018-12-06T06:13:59.213Z,0.40
2018-12-06T06:16:25.340Z,0.50
2018-12-06T06:18:51.484Z,0.30
2018-12-06T06:21:17.623Z,0.47
2018-12-06T06:23:44.767Z,0.30
2018-12-06T06:26:10.915Z,0.50
2018-12-06T06:28:37.198Z,0.20
2018-12-06T06:31:03.348Z,0.73
2018-12-06T06:33:29.469Z,0.40
2018-12-06T06:35:55.605Z,0.70
2018-12-06T06:38:22.112Z,0.50
2018-12-06T06:40:48.266Z,0.40
2018-12-06T06:43:14.387Z,0.40
2018-12-06T06:45:40.576Z,0.47
2018-12-06T06:48:06.723Z,0.97
2018-12-06T06:50:32.862Z,0.50
2018-12-06T06:52:58.997Z,0.40
2018-12-06T06:55:25.147Z,0.40
2018-12-06T06:57:51.292Z,0.40
2018-12-06T07:00:17.894Z,0.60
2018-12-06T07:02:44.080Z,0.40
2018-12-06T07:05:10.293Z,0.47
2018-12-06T07:07:36.423Z,0.30
2018-12-06T07:10:04.619Z,0.30
2018-12-06T07:12:30.782Z,0.40
2018-12-06T07:14:56.929Z,0.30
2018-12-06T07:17:23.066Z,0.60
2018-12-06T07:19:49.296Z,0.30
2018-12-06T07:22:15.479Z,0.30
2018-12-06T07:24:41.655Z,0.50
2018-12-06T07:27:07.787Z,0.40
2018-12-06T07:29:34.034Z,0.50
2018-12-06T07:32:00.173Z,0.47
2018-12-06T07:34:26.331Z,0.23
2018-12-06T07:36:52.504Z,0.30
2018-12-06T07:39:18.645Z,0.40
2018-12-06T07:41:44.817Z,0.37
2018-12-06T07:44:10.946Z,0.40
2018-12-06T07:46:37.080Z,0.30
2018-12-06T07:49:03.254Z,0.60
2018-12-06T07:51:29.398Z,0.70
2018-12-06T07:53:55.543Z,0.40
2018-12-06T07:56:21.696Z,0.30
2018-12-06T07:58:47.827Z,0.60
2018-12-06T08:01:13.997Z,0.20
2018-12-06T08:03:40.230Z,0.20
2018-12-06T08:06:06.504Z,0.33
2018-12-06T08:08:32.623Z,0.63
2018-12-06T08:10:58.767Z,0.43
2018-12-06T08:13:24.923Z,0.50
2018-12-06T08:15:51.090Z,0.20
2018-12-06T08:18:17.240Z,0.37
2018-12-06T08:20:43.424Z,0.50
2018-12-06T08:23:09.619Z,0.30
2018-12-06T08:25:35.772Z,0.30
2018-12-06T08:28:01.912Z,0.57
2018-12-06T08:30:28.051Z,0.40
2018-12-06T08:32:54.267Z,0.40
2018-12-06T08:35:20.421Z,0.20
2018-12-06T08:37:46.591Z,0.30
2018-12-06T08:40:12.737Z,0.40
2018-12-06T08:42:45.410Z,0.10
2018-12-06T08:45:07.117Z,0.30
2018-12-06T08:47:33.358Z,0.40
2018-12-06T08:49:59.507Z,0.30
2018-12-06T08:52:25.632Z,0.30
2018-12-06T08:54:51.773Z,0.50
2018-12-06T08:57:17.931Z,0.20
2018-12-06T08:59:44.047Z,0.30
2018-12-06T09:02:10.186Z,0.37
2018-12-06T09:04:37.612Z,0.50
2018-12-06T09:07:04.011Z,0.40
2018-12-06T09:09:30.166Z,0.50
2018-12-06T09:11:56.645Z,0.80
2018-12-06T09:14:22.778Z,0.57
2018-12-06T09:16:48.951Z,0.60
2018-12-06T09:19:15.106Z,0.40
2018-12-06T09:21:41.246Z,0.70
2018-12-06T09:24:07.389Z,0.93
2018-12-06T09:26:33.568Z,0.87
2018-12-06T09:28:59.719Z,0.60
2018-12-06T09:31:25.847Z,0.70
2018-12-06T09:34:05.211Z,0.70
2018-12-06T09:36:31.614Z,0.47
2018-12-06T09:38:57.871Z,0.40
2018-12-06T09:41:24.038Z,0.83
2018-12-06T09:43:50.235Z,0.40
2018-12-06T09:46:16.404Z,0.60
2018-12-06T09:48:42.575Z,0.50
2018-12-06T09:51:08.712Z,0.50
2018-12-06T09:53:34.890Z,0.40
2018-12-06T09:56:01.034Z,0.60
2018-12-06T09:58:27.171Z,0.50
2018-12-06T10:00:53.329Z,0.40
2018-12-06T10:03:19.477Z,0.20
2018-12-06T10:05:45.609Z,0.27
2018-12-06T10:08:11.743Z,0.40
2018-12-06T10:10:37.899Z,0.40
2018-12-06T10:13:04.031Z,0.50
2018-12-06T10:15:30.188Z,0.40
2018-12-06T10:17:56.328Z,0.13
2018-12-06T10:20:22.460Z,0.20
2018-12-06T10:22:48.630Z,0.27
2018-12-06T10:25:14.779Z,0.50
2018-12-06T10:27:40.911Z,0.53
2018-12-06T10:30:07.220Z,0.30
2018-12-06T10:32:33.349Z,0.40
2018-12-06T10:34:59.492Z,0.50
2018-12-06T10:37:25.647Z,0.43
2018-12-06T10:39:51.785Z,0.20
2018-12-06T10:42:17.934Z,0.23
2018-12-06T10:44:44.068Z,0.20
2018-12-06T10:47:10.226Z,0.40
2018-12-06T10:49:36.445Z,0.23
2018-12-06T10:52:02.578Z,0.30
2018-12-06T10:54:28.726Z,0.30
2018-12-06T10:56:54.860Z,0.20
2018-12-06T10:59:21.003Z,0.50
2018-12-06T11:01:49.188Z,0.30
2018-12-06T11:04:15.446Z,0.23
2018-12-06T11:06:41.599Z,0.27
2018-12-06T11:09:07.859Z,0.37
2018-12-06T11:11:34.007Z,0.30
2018-12-06T11:14:40.755Z,0.13
2018-12-06T11:17:06.896Z,0.30
2018-12-06T11:19:33.033Z,0.30
2018-12-06T11:21:59.209Z,0.30
2018-12-06T11:24:25.335Z,0.40
2018-12-06T11:26:51.481Z,0.40
2018-12-06T11:29:17.615Z,0.30
2018-12-06T11:31:43.766Z,0.30
2018-12-06T11:34:09.908Z,0.53
2018-12-06T11:36:36.059Z,0.40
2018-12-06T11:39:04.143Z,0.20
2018-12-06T11:41:30.323Z,0.30
2018-12-06T11:43:56.447Z,0.10
2018-12-06T11:46:22.579Z,0.30
2018-12-06T11:48:48.714Z,0.20
2018-12-06T11:51:14.926Z,0.30
2018-12-06T11:53:41.053Z,0.20
2018-12-06T11:56:07.214Z,0.33
2018-12-06T11:58:33.371Z,0.20
2018-12-06T12:00:59.503Z,0.20
2018-12-06T12:03:25.631Z,0.40
2018-12-06T12:05:58.434Z,0.20
2018-12-06T12:08:19.947Z,0.30
2018-12-06T12:10:46.108Z,0.37
2018-12-06T12:13:12.239Z,0.20
2018-12-06T12:15:38.365Z,0.30
2018-12-06T12:20:00.885Z,0.50
2018-12-06T12:22:27.078Z,0.30
2018-12-06T12:24:53.210Z,0.30
2018-12-06T12:27:19.359Z,0.30
2018-12-06T12:29:45.492Z,0.50
2018-12-06T12:32:11.647Z,0.47
2018-12-06T12:34:37.803Z,0.30
2018-12-06T12:37:03.951Z,0.50
2018-12-06T12:39:30.087Z,0.30
2018-12-06T12:41:56.221Z,0.67
2018-12-06T12:44:22.405Z,0.40
2018-12-06T12:46:48.522Z,0.30
2018-12-06T12:49:14.667Z,0.20
2018-12-06T12:51:40.787Z,0.30
2018-12-06T12:54:07.080Z,0.30
2018-12-06T12:56:33.211Z,0.30
2018-12-06T12:58:59.397Z,0.30
2018-12-06T13:01:25.522Z,0.47
2018-12-06T13:03:51.639Z,0.70
2018-12-06T13:06:17.782Z,0.30
2018-12-06T13:08:43.899Z,0.30
2018-12-06T13:11:10.023Z,0.40
2018-12-06T13:13:36.157Z,0.30
2018-12-06T13:16:02.435Z,0.40
2018-12-06T13:18:28.584Z,0.30
2018-12-06T13:20:54.759Z,0.50
2018-12-06T13:23:21.247Z,0.47
2018-12-06T13:25:47.364Z,0.40
2018-12-06T13:28:13.687Z,0.50
2018-12-06T13:30:39.951Z,0.30
2018-12-06T13:33:06.108Z,0.20
2018-12-06T13:35:32.291Z,0.20
2018-12-06T13:37:58.416Z,0.20
2018-12-06T13:40:24.543Z,0.20
2018-12-06T13:42:50.676Z,0.30
2018-12-06T13:45:16.955Z,0.20
2018-12-06T13:47:43.101Z,0.30
2018-12-06T13:50:09.268Z,0.30
2018-12-06T13:52:35.399Z,0.40
2018-12-06T13:55:01.572Z,0.20
2018-12-06T13:57:27.738Z,0.23
2018-12-06T13:59:53.891Z,0.47
2018-12-06T14:02:20.139Z,0.63
2018-12-06T14:04:46.300Z,0.20
2018-12-06T14:07:12.431Z,0.37
2018-12-06T14:09:38.585Z,0.47
2018-12-06T14:12:04.731Z,0.30
2018-12-06T14:14:30.898Z,0.20
2018-12-06T14:16:57.031Z,0.37
2018-12-06T14:19:23.212Z,0.20
2018-12-06T14:21:49.356Z,0.30
2018-12-06T14:24:15.511Z,0.30
2018-12-06T14:26:41.653Z,0.30
2018-12-06T14:29:07.879Z,0.30
2018-12-06T14:31:34.034Z,0.40
2018-12-06T14:34:00.174Z,0.20
2018-12-06T14:36:26.326Z,0.50
2018-12-06T14:38:52.442Z,0.23
2018-12-06T14:41:18.571Z,0.47
2018-12-06T14:43:44.689Z,0.30
2018-12-06T14:46:10.871Z,0.57
2018-12-06T14:48:37.147Z,0.30
2018-12-06T14:51:03.328Z,0.23
2018-12-06T14:53:29.484Z,0.27
2018-12-06T14:55:55.647Z,0.40
2018-12-06T14:58:21.776Z,0.30
2018-12-06T15:00:47.924Z,0.80
2018-12-06T15:03:14.071Z,0.33
2018-12-06T15:05:40.267Z,0.20
2018-12-06T15:08:06.439Z,0.23
2018-12-06T15:10:32.607Z,0.40
2018-12-06T15:12:58.728Z,0.47
2018-12-06T15:15:24.848Z,0.30
2018-12-06T15:17:51.001Z,0.30
2018-12-06T15:20:17.135Z,0.40
2018-12-06T15:22:43.310Z,0.43
2018-12-06T15:25:09.440Z,0.23
2018-12-06T15:27:35.922Z,0.20
2018-12-06T15:30:05.433Z,0.40
2018-12-06T15:32:31.575Z,0.27
2018-12-06T15:34:57.712Z,0.40
2018-12-06T15:37:23.892Z,0.30
2018-12-06T15:39:50.033Z,0.30
2018-12-06T15:42:16.172Z,0.27
2018-12-06T15:44:42.331Z,1.23
2018-12-06T15:47:08.471Z,0.30
2018-12-06T15:49:34.583Z,0.27
2018-12-06T15:52:00.707Z,0.50
2018-12-06T15:54:26.837Z,0.50
2018-12-06T15:56:52.956Z,0.40
2018-12-06T15:59:19.123Z,0.30
2018-12-06T16:01:45.275Z,0.30
2018-12-06T16:04:11.439Z,0.73
2018-12-06T16:06:37.555Z,2.47
2018-12-06T16:09:05.047Z,2.07
2018-12-06T16:11:31.187Z,1.13
2018-12-06T16:13:57.331Z,1.17
2018-12-06T16:16:23.491Z,0.97
2018-12-06T16:18:49.627Z,0.97
2018-12-06T16:21:15.795Z,1.63
2018-12-06T16:23:41.916Z,6.00
2018-12-06T16:26:08.043Z,6.70
2018-12-06T16:28:34.208Z,5.20
2018-12-06T16:31:00.336Z,4.93
2018-12-06T16:33:26.499Z,4.77
2018-12-06T16:35:52.726Z,2.00
2018-12-06T16:38:18.867Z,1.30
2018-12-06T16:40:44.991Z,0.80
2018-12-06T16:43:11.338Z,0.50
2018-12-06T16:45:37.463Z,0.80
2018-12-06T16:48:03.609Z,0.73
2018-12-06T16:50:29.768Z,0.50
2018-12-06T16:52:55.926Z,0.50
2018-12-06T16:55:22.219Z,0.40
2018-12-06T16:57:48.371Z,0.20
2018-12-06T17:00:14.788Z,0.50
2018-12-06T17:02:41.119Z,0.60
2018-12-06T17:05:07.340Z,0.60
2018-12-06T17:07:33.458Z,0.40
2018-12-06T17:09:59.611Z,0.40
2018-12-06T17:12:25.743Z,0.40
2018-12-06T17:14:51.912Z,0.40
2018-12-06T17:17:18.036Z,0.40
2018-12-06T17:19:44.243Z,0.50
2018-12-06T17:22:10.415Z,0.40
2018-12-06T17:24:36.591Z,0.50
2018-12-06T17:27:02.761Z,0.40
2018-12-06T17:29:28.935Z,0.23
2018-12-06T17:31:55.064Z,0.30
2018-12-06T17:34:21.234Z,0.50
2018-12-06T17:36:47.443Z,0.50
2018-12-06T17:39:13.592Z,0.33
2018-12-06T17:41:39.712Z,0.30
2018-12-06T17:44:05.827Z,0.20
2018-12-06T17:46:31.971Z,0.47
2018-12-06T17:48:58.094Z,0.50
2018-12-06T17:51:24.278Z,0.77
2018-12-06T17:53:52.353Z,0.70
2018-12-06T17:56:18.575Z,0.40
2018-12-06T17:58:44.695Z,1.00
2018-12-06T18:01:10.891Z,2.70
2018-12-06T18:03:37.036Z,1.60
2018-12-06T18:06:03.287Z,1.30
2018-12-06T18:08:29.415Z,2.20
2018-12-06T18:10:55.741Z,1.60
2018-12-06T18:13:21.913Z,1.00
2018-12-06T18:15:48.338Z,1.43
2018-12-06T18:18:14.471Z,1.00
2018-12-06T18:20:40.641Z,1.17
2018-12-06T18:23:06.808Z,1.20
2018-12-06T18:25:33.583Z,1.23
2018-12-06T18:27:59.724Z,1.73
2018-12-06T18:30:25.879Z,1.97
2018-12-06T18:32:52.023Z,1.30
2018-12-06T18:35:18.160Z,1.50
2018-12-06T18:37:44.305Z,1.50
2018-12-06T18:40:10.452Z,1.30
2018-12-06T18:42:36.731Z,1.13
2018-12-06T18:45:03.863Z,1.30
2018-12-06T18:47:30.007Z,1.00
2018-12-06T18:49:56.140Z,1.00
2018-12-06T18:52:22.281Z,0.87
2018-12-06T18:54:48.431Z,0.90
2018-12-06T18:57:14.577Z,1.00
2018-12-06T18:59:40.715Z,1.10
2018-12-06T19:02:06.868Z,1.00
2018-12-06T19:04:33.035Z,1.00
2018-12-06T19:06:59.196Z,1.07
2018-12-06T19:09:25.332Z,1.03
2018-12-06T19:11:51.467Z,0.93
2018-12-06T19:14:21.915Z,1.00
2018-12-06T19:16:45.764Z,1.07
2018-12-06T19:19:11.914Z,1.33
2018-12-06T19:21:38.083Z,1.20
2018-12-06T19:24:04.363Z,0.90
2018-12-06T19:26:30.495Z,1.20
2018-12-06T19:28:56.651Z,1.20
2018-12-06T19:31:22.772Z,1.60
2018-12-06T19:33:48.983Z,2.10
2018-12-06T19:36:15.128Z,2.23
2018-12-06T19:38:41.310Z,1.50
2018-12-06T19:41:07.450Z,1.40
2018-12-06T19:43:33.572Z,2.10
2018-12-06T19:45:59.720Z,1.73
2018-12-06T19:48:27.305Z,2.00
2018-12-06T19:50:53.603Z,2.20
2018-12-06T19:53:19.719Z,2.63
2018-12-06T19:55:45.843Z,2.37
2018-12-06T19:58:12.128Z,1.77
2018-12-06T20:00:38.348Z,2.30
2018-12-06T20:03:04.531Z,1.90
2018-12-06T20:05:30.669Z,1.90
2018-12-06T20:07:56.859Z,2.60
2018-12-06T20:10:23.011Z,2.13
2018-12-06T20:12:49.196Z,2.50
2018-12-06T20:15:15.388Z,2.47
2018-12-06T20:17:41.606Z,2.13
2018-12-06T20:20:07.791Z,2.43
2018-12-06T20:22:33.959Z,1.87
2018-12-06T20:25:00.162Z,2.03
2018-12-06T20:27:26.291Z,1.87
2018-12-06T20:29:52.486Z,1.80
2018-12-06T20:32:18.612Z,1.90
2018-12-06T20:34:44.750Z,1.90
2018-12-06T20:37:10.902Z,1.90
2018-12-06T20:39:37.047Z,1.60
2018-12-06T20:42:03.199Z,2.10
2018-12-06T20:44:29.351Z,1.60
2018-12-06T20:46:55.506Z,1.43
2018-12-06T20:49:21.639Z,1.40
2018-12-06T20:51:47.775Z,1.70
2018-12-06T20:54:13.890Z,5.27
2018-12-06T20:56:40.191Z,2.30
2018-12-06T20:59:06.344Z,3.40
2018-12-06T21:01:32.460Z,3.10
2018-12-06T21:03:58.584Z,2.90
2018-12-06T21:06:24.731Z,2.33
2018-12-06T21:08:50.849Z,2.27
2018-12-06T21:11:16.972Z,1.23
2018-12-06T21:13:43.075Z,1.03
2018-12-06T21:16:09.239Z,1.00
2018-12-06T21:18:35.355Z,0.57
2018-12-06T21:21:01.475Z,0.80
2018-12-06T21:23:27.650Z,0.90
2018-12-06T21:25:53.830Z,0.83
2018-12-06T21:28:19.941Z,0.67
2018-12-06T21:30:46.071Z,0.77
2018-12-06T21:33:12.228Z,0.70
2018-12-06T21:35:38.348Z,0.77
2018-12-06T21:38:04.510Z,0.70
2018-12-06T21:40:30.790Z,0.33
2018-12-06T21:42:56.935Z,0.30
2018-12-06T21:45:23.071Z,0.20
2018-12-06T21:47:49.225Z,1.00
2018-12-06T21:50:15.360Z,0.50
2018-12-06T21:52:41.479Z,0.30
2018-12-06T21:55:07.600Z,0.43
2018-12-06T21:57:33.738Z,0.23
2018-12-06T21:59:59.867Z,0.50
2018-12-06T22:02:26.867Z,0.50
2018-12-06T22:04:53.040Z,0.40
2018-12-06T22:07:19.192Z,0.50
2018-12-06T22:09:45.331Z,0.30
2018-12-06T22:12:11.521Z,0.40
2018-12-06T22:14:37.639Z,0.50
2018-12-06T22:17:04.126Z,0.53
2018-12-06T22:19:30.259Z,0.50
2018-12-06T22:21:56.597Z,0.40
2018-12-06T22:24:22.748Z,0.60
2018-12-06T22:26:48.887Z,0.60
2018-12-06T22:29:15.063Z,0.50
2018-12-06T22:31:41.218Z,0.70
2018-12-06T22:34:07.434Z,0.50
2018-12-06T22:36:33.561Z,0.30
2018-12-06T22:38:59.676Z,0.47
2018-12-06T22:41:25.851Z,0.60
2018-12-06T22:43:52.105Z,0.70
2018-12-06T22:46:18.258Z,0.90
2018-12-06T22:48:44.407Z,0.83
2018-12-06T22:51:10.532Z,0.70
2018-12-06T22:53:36.671Z,0.73
2018-12-06T22:56:03.041Z,0.60
2018-12-06T22:58:29.191Z,0.60
2018-12-06T23:00:56.369Z,0.80
2018-12-06T23:03:22.966Z,0.77
2018-12-06T23:05:49.155Z,0.83
2018-12-06T23:08:15.298Z,1.27
2018-12-06T23:10:41.430Z,0.67
2018-12-06T23:13:07.575Z,1.20
2018-12-06T23:15:33.723Z,0.87
2018-12-06T23:17:59.835Z,0.50
2018-12-06T23:20:25.992Z,0.60
2018-12-06T23:22:52.338Z,1.00
2018-12-06T23:25:18.502Z,0.70
2018-12-06T23:27:45.040Z,0.90
2018-12-06T23:30:11.194Z,1.00
2018-12-06T23:32:37.321Z,0.97
2018-12-06T23:35:04.443Z,0.60
2018-12-06T23:37:30.575Z,0.67
2018-12-06T23:39:56.747Z,0.80
2018-12-06T23:42:22.859Z,0.77
2018-12-06T23:44:48.991Z,0.97
2018-12-06T23:47:15.099Z,0.77
2018-12-06T23:49:41.249Z,0.60
2018-12-06T23:52:07.376Z,1.27
2018-12-06T23:54:33.559Z,0.90
2018-12-06T23:56:59.680Z,0.90
2018-12-06T23:59:25.791Z,1.17
